createdAt,value
2022-08-03T00:01:51.932Z,98006.88
2022-08-03T00:04:19.790Z,98015.13
2022-08-03T00:06:46.771Z,98001.84
2022-08-03T00:09:14.044Z,98019.34
2022-08-03T00:11:41.338Z,98004.56
2022-08-03T00:14:09.109Z,98002.91
2022-08-03T00:16:36.261Z,98017.66
2022-08-03T00:19:06.468Z,98005.00
2022-08-03T00:21:33.728Z,98011.97
2022-08-03T00:24:00.717Z,98005.22
2022-08-03T00:26:28.191Z,98014.25
2022-08-03T00:28:55.238Z,98018.03
2022-08-03T00:31:40.198Z,98009.81
2022-08-03T00:34:10.306Z,98016.34
2022-08-03T00:36:39.526Z,98006.44
2022-08-03T00:39:06.825Z,98008.31
2022-08-03T00:41:34.009Z,98008.75
2022-08-03T00:44:01.394Z,98000.50
2022-08-03T00:46:28.368Z,97999.44
2022-08-03T00:48:56.324Z,98007.88
2022-08-03T00:51:24.138Z,98002.84
2022-08-03T00:53:51.847Z,97993.94
2022-08-03T00:56:19.685Z,97996.69
2022-08-03T00:58:47.544Z,98004.50
2022-08-03T01:01:15.275Z,98008.94
2022-08-03T01:03:43.535Z,98005.16
2022-08-03T01:06:18.914Z,98010.41
2022-08-03T01:09:11.677Z,98003.66
2022-08-03T01:12:00.690Z,98010.84
2022-08-03T01:14:57.049Z,98006.19
2022-08-03T01:17:40.347Z,98016.94
2022-08-03T01:20:12.288Z,98024.34
2022-08-03T01:23:20.119Z,98019.06
2022-08-03T01:26:14.532Z,98021.56
2022-08-03T01:29:04.666Z,98015.88
2022-08-03T01:32:58.411Z,98017.56
2022-08-03T01:34:48.873Z,97996.03
2022-08-03T01:37:23.930Z,98005.72
2022-08-03T01:39:52.164Z,97999.41
2022-08-03T01:42:21.682Z,98007.66
2022-08-03T01:44:51.439Z,97998.59
2022-08-03T01:47:21.623Z,97991.41
2022-08-03T01:49:51.060Z,97992.66
2022-08-03T01:52:20.612Z,98004.66
2022-08-03T01:54:51.706Z,98012.91
2022-08-03T01:57:20.116Z,98015.41
2022-08-03T01:59:49.420Z,98019.63
2022-08-03T02:02:33.633Z,98011.59
2022-08-03T02:05:05.989Z,98017.69
2022-08-03T02:07:41.251Z,98015.97
2022-08-03T02:10:11.814Z,98018.28
2022-08-03T02:12:41.251Z,98017.41
2022-08-03T02:15:09.533Z,98013.81
2022-08-03T02:17:40.325Z,98018.22
2022-08-03T02:20:11.519Z,98022.63
2022-08-03T02:22:43.533Z,98012.75
2022-08-03T02:25:13.890Z,98013.56
2022-08-03T02:27:49.146Z,98012.50
2022-08-03T02:30:16.835Z,98010.19
2022-08-03T02:32:51.554Z,98011.03
2022-08-03T02:35:20.955Z,98012.94
2022-08-03T02:37:52.739Z,98011.88
2022-08-03T02:40:24.764Z,98014.41
2022-08-03T02:42:56.386Z,98009.31
2022-08-03T02:45:26.264Z,98014.81
2022-08-03T02:47:58.373Z,98004.53
2022-08-03T02:50:28.787Z,98014.41
2022-08-03T02:52:58.474Z,98015.47
2022-08-03T02:55:27.646Z,98015.47
2022-08-03T02:58:01.527Z,98009.13
2022-08-03T03:00:35.107Z,98015.25
2022-08-03T03:03:07.101Z,98019.41
2022-08-03T03:05:55.016Z,98018.78
2022-08-03T03:08:28.722Z,98018.75
2022-08-03T03:11:01.116Z,98018.97
2022-08-03T03:13:30.783Z,98032.00
2022-08-03T03:16:04.084Z,98020.38
2022-08-03T03:18:37.498Z,98020.81
2022-08-03T03:21:07.985Z,98029.03
2022-08-03T03:23:41.079Z,98026.28
2022-08-03T03:26:09.165Z,98014.72
2022-08-03T03:28:37.428Z,98021.22
2022-08-03T03:31:09.128Z,98022.50
2022-08-03T03:33:37.683Z,98021.25
2022-08-03T03:36:06.630Z,98022.72
2022-08-03T03:38:34.870Z,98030.75
2022-08-03T03:41:02.371Z,98032.84
2022-08-03T03:43:29.870Z,98030.56
2022-08-03T03:45:58.737Z,98030.16
2022-08-03T03:48:26.582Z,98034.16
2022-08-03T03:50:53.861Z,98031.03
2022-08-03T03:53:21.800Z,98037.16
2022-08-03T03:55:57.928Z,98038.81
2022-08-03T03:58:31.753Z,98038.81
2022-08-03T04:00:59.271Z,98035.69
2022-08-03T04:03:26.629Z,98031.47
2022-08-03T04:06:12.429Z,98032.06
2022-08-03T04:08:58.890Z,98031.66
2022-08-03T04:11:31.987Z,98031.66
2022-08-03T04:14:03.839Z,98038.00
2022-08-03T04:16:35.236Z,98045.53
2022-08-03T04:19:09.475Z,98043.59
2022-08-03T04:21:44.876Z,98049.91
2022-08-03T04:24:14.074Z,98045.91
2022-08-03T04:26:43.441Z,98048.03
2022-08-03T04:29:15.660Z,98048.31
2022-08-03T04:31:45.533Z,98051.09
2022-08-03T04:34:12.689Z,98051.97
2022-08-03T04:36:51.586Z,98059.00
2022-08-03T04:39:25.860Z,98056.28
2022-08-03T04:42:08.149Z,98064.31
2022-08-03T04:44:40.683Z,98063.47
2022-08-03T04:47:09.154Z,98059.22
2022-08-03T04:49:40.257Z,98069.59
2022-08-03T04:52:08.803Z,98067.28
2022-08-03T04:54:50.183Z,98077.88
2022-08-03T04:57:22.857Z,98074.03
2022-08-03T05:00:01.694Z,98084.59
2022-08-03T05:02:31.368Z,98081.88
2022-08-03T05:04:59.006Z,98084.44
2022-08-03T05:07:35.787Z,98080.88
2022-08-03T05:10:15.797Z,98080.88
2022-08-03T05:12:49.405Z,98082.78
2022-08-03T05:15:16.705Z,98089.34
2022-08-03T05:17:44.118Z,98088.94
2022-08-03T05:20:12.731Z,98091.53
2022-08-03T05:22:39.730Z,98093.63
2022-08-03T05:25:07.355Z,98087.75
2022-08-03T05:27:34.905Z,98094.09
2022-08-03T05:30:30.867Z,98098.56
2022-08-03T05:32:50.243Z,98101.06
2022-08-03T05:36:00.955Z,98102.34
2022-08-03T05:38:06.347Z,98101.69
2022-08-03T05:40:36.509Z,98101.66
2022-08-03T05:43:04.236Z,98103.69
2022-08-03T05:45:31.732Z,98096.47
2022-08-03T05:47:58.695Z,98095.59
2022-08-03T05:50:26.612Z,98105.66
2022-08-03T05:52:57.949Z,98112.78
2022-08-03T05:55:26.098Z,98110.91
2022-08-03T05:57:56.743Z,98106.13
2022-08-03T06:00:24.377Z,98110.50
2022-08-03T06:02:52.705Z,98107.50
2022-08-03T06:05:20.727Z,98115.56
2022-08-03T06:07:47.731Z,98105.78
2022-08-03T06:10:37.578Z,98103.59
2022-08-03T06:13:02.940Z,98108.44
2022-08-03T06:15:30.914Z,98109.84
2022-08-03T06:18:01.731Z,98110.41
2022-08-03T06:20:29.550Z,98103.81
2022-08-03T06:23:00.852Z,98120.69
2022-08-03T06:25:29.207Z,98112.81
2022-08-03T06:27:56.666Z,98114.59
2022-08-03T06:30:23.988Z,98114.56
2022-08-03T06:32:51.982Z,98113.25
2022-08-03T06:35:20.553Z,98121.31
2022-08-03T06:37:50.050Z,98113.13
2022-08-03T06:40:21.723Z,98120.84
2022-08-03T06:42:52.190Z,98109.75
2022-08-03T06:45:19.129Z,98116.66
2022-08-03T06:47:46.825Z,98113.44
2022-08-03T06:50:16.941Z,98119.28
2022-08-03T06:52:45.524Z,98114.34
2022-08-03T06:55:12.913Z,98112.09
2022-08-03T06:57:40.268Z,98109.66
2022-08-03T07:00:12.445Z,98110.69
2022-08-03T07:02:42.234Z,98110.84
2022-08-03T07:05:10.656Z,98110.47
2022-08-03T07:07:38.620Z,98110.00
2022-08-03T07:10:07.288Z,98106.16
2022-08-03T07:12:35.981Z,98120.31
2022-08-03T07:15:04.298Z,98115.28
2022-08-03T07:17:34.474Z,98113.38
2022-08-03T07:20:03.276Z,98112.78
2022-08-03T07:22:30.538Z,98117.72
2022-08-03T07:24:58.806Z,98109.56
2022-08-03T07:27:27.232Z,98110.28
2022-08-03T07:29:55.867Z,98106.69
2022-08-03T07:32:23.924Z,98110.16
2022-08-03T07:34:51.539Z,98112.16
2022-08-03T07:37:19.195Z,98109.50
2022-08-03T07:39:47.017Z,98112.00
2022-08-03T07:42:14.352Z,98112.19
2022-08-03T07:44:43.006Z,98104.69
2022-08-03T07:47:10.079Z,98108.41
2022-08-03T07:49:50.105Z,98111.44
2022-08-03T07:52:35.484Z,98113.00
2022-08-03T07:55:03.784Z,98103.69
2022-08-03T07:57:30.975Z,98108.06
2022-08-03T08:00:02.425Z,98103.69
2022-08-03T08:02:40.123Z,98104.63
2022-08-03T08:05:09.084Z,98117.91
2022-08-03T08:07:36.042Z,98107.72
2022-08-03T08:10:04.566Z,98101.28
2022-08-03T08:12:32.230Z,98105.81
2022-08-03T08:15:00.023Z,98106.66
2022-08-03T08:17:27.516Z,98111.03
2022-08-03T08:19:56.836Z,98108.66
2022-08-03T08:22:30.068Z,98099.50
2022-08-03T08:24:59.712Z,98095.28
2022-08-03T08:27:28.493Z,98100.84
2022-08-03T08:30:21.915Z,98092.00
2022-08-03T08:32:50.411Z,98094.06
2022-08-03T08:35:18.324Z,98090.53
2022-08-03T08:37:50.829Z,98094.47
2022-08-03T08:40:22.045Z,98098.22
2022-08-03T08:42:59.035Z,98095.13
2022-08-03T08:45:28.154Z,98099.16
2022-08-03T08:48:01.032Z,98094.72
2022-08-03T08:50:31.054Z,98085.41
2022-08-03T08:53:02.452Z,98086.44
2022-08-03T08:55:58.619Z,98087.38
2022-08-03T08:58:23.183Z,98085.38
2022-08-03T09:00:51.012Z,98093.78
2022-08-03T09:03:29.759Z,98081.13
2022-08-03T09:06:01.424Z,98076.28
2022-08-03T09:08:33.149Z,98078.38
2022-08-03T09:11:00.667Z,98072.69
2022-08-03T09:13:29.462Z,98074.69
2022-08-03T09:16:10.110Z,98065.91
2022-08-03T09:18:37.687Z,98074.88
2022-08-03T09:21:32.080Z,98072.16
2022-08-03T09:24:04.406Z,98073.59
2022-08-03T09:26:35.682Z,98074.78
2022-08-03T09:29:14.983Z,98070.63
2022-08-03T09:31:47.203Z,98074.53
2022-08-03T09:34:17.715Z,98077.47
2022-08-03T09:36:46.849Z,98074.88
2022-08-03T09:39:41.161Z,98063.22
2022-08-03T09:42:14.641Z,98061.78
2022-08-03T09:44:49.360Z,98057.72
2022-08-03T09:47:45.091Z,98060.88
2022-08-03T09:50:13.096Z,98050.66
2022-08-03T09:52:52.314Z,98049.66
2022-08-03T09:56:34.126Z,98051.41
2022-08-03T09:58:14.816Z,98048.66
2022-08-03T10:01:06.255Z,98050.91
2022-08-03T10:04:02.912Z,98047.31
2022-08-03T10:06:28.844Z,98040.94
2022-08-03T10:09:10.408Z,98038.31
2022-08-03T10:11:42.129Z,98042.47
2022-08-03T10:14:19.562Z,98028.84
2022-08-03T10:16:48.376Z,98018.22
2022-08-03T10:19:15.887Z,98026.06
2022-08-03T10:21:51.171Z,98020.81
2022-08-03T10:24:26.295Z,98017.81
2022-08-03T10:27:03.255Z,98017.16
2022-08-03T10:29:37.280Z,98022.25
2022-08-03T10:32:14.952Z,98012.25
2022-08-03T10:34:44.880Z,98013.41
2022-08-03T10:37:15.538Z,98014.53
2022-08-03T10:39:53.734Z,98002.19
2022-08-03T10:42:27.282Z,97988.25
2022-08-03T10:45:05.863Z,98003.53
2022-08-03T10:47:35.793Z,98004.34
2022-08-03T10:50:04.620Z,97994.06
2022-08-03T10:52:39.527Z,98002.75
2022-08-03T10:55:49.971Z,98000.00
2022-08-03T10:58:57.105Z,97995.00
2022-08-03T11:01:58.369Z,97979.13
2022-08-03T11:04:27.347Z,97979.13
2022-08-03T11:07:16.614Z,97977.41
2022-08-03T11:09:50.204Z,97978.97
2022-08-03T11:12:32.623Z,97976.13
2022-08-03T11:15:04.253Z,97977.16
2022-08-03T11:17:33.876Z,97975.00
2022-08-03T11:20:14.679Z,97971.69
2022-08-03T11:22:49.351Z,97974.31
2022-08-03T11:25:53.447Z,97979.19
2022-08-03T11:28:41.328Z,97967.81
2022-08-03T11:34:13.550Z,97958.38
2022-08-03T11:37:17.930Z,97961.22
2022-08-03T11:39:48.077Z,97953.94
2022-08-03T11:42:25.054Z,97947.50
2022-08-03T11:44:54.642Z,97950.69
2022-08-03T11:47:23.268Z,97940.75
2022-08-03T11:49:52.126Z,97940.56
2022-08-03T11:52:27.153Z,97935.69
2022-08-03T11:54:56.701Z,97930.72
2022-08-03T11:59:01.902Z,97916.75
2022-08-03T12:00:40.580Z,97921.75
2022-08-03T12:03:12.197Z,97923.31
2022-08-03T12:05:51.054Z,97927.06
2022-08-03T12:08:31.470Z,97909.13
2022-08-03T12:11:01.404Z,97907.13
2022-08-03T12:14:26.826Z,97905.91
2022-08-03T12:16:29.759Z,97913.38
2022-08-03T12:19:02.767Z,97902.75
2022-08-03T12:21:30.728Z,97899.50
2022-08-03T12:24:02.096Z,97898.44
2022-08-03T12:26:42.521Z,97902.66
2022-08-03T12:29:23.365Z,97894.84
2022-08-03T12:31:51.115Z,97894.97
2022-08-03T12:34:18.244Z,97890.72
2022-08-03T12:36:57.358Z,97882.69
2022-08-03T12:39:27.605Z,97883.38
2022-08-03T12:41:55.560Z,97886.25
2022-08-03T12:44:31.703Z,97886.25
2022-08-03T12:47:00.221Z,97882.38
2022-08-03T12:49:27.701Z,97881.22
2022-08-03T12:52:00.804Z,97880.00
2022-08-03T12:54:32.677Z,97875.41
2022-08-03T12:57:04.718Z,97876.38
2022-08-03T12:59:40.802Z,97873.56
2022-08-03T13:02:20.832Z,97870.19
2022-08-03T13:04:54.314Z,97875.91
2022-08-03T13:07:23.721Z,97870.53
2022-08-03T13:09:55.424Z,97866.91
2022-08-03T13:12:25.488Z,97860.47
2022-08-03T13:14:56.018Z,97865.13
2022-08-03T13:17:23.499Z,97864.63
2022-08-03T13:22:49.110Z,97867.88
2022-08-03T13:25:16.822Z,97856.88
2022-08-03T13:28:03.721Z,97857.53
2022-08-03T13:30:31.981Z,97848.31
2022-08-03T13:33:00.614Z,97847.63
2022-08-03T13:35:28.248Z,97846.50
2022-08-03T13:37:55.305Z,97836.00
2022-08-03T13:40:29.934Z,97839.28
2022-08-03T13:42:58.589Z,97841.31
2022-08-03T13:45:27.612Z,97840.38
2022-08-03T13:47:55.325Z,97837.19
2022-08-03T13:50:22.559Z,97841.19
2022-08-03T13:52:49.937Z,97839.31
2022-08-03T13:55:16.955Z,97840.91
2022-08-03T13:58:04.545Z,97826.69
2022-08-03T14:00:32.042Z,97832.56
2022-08-03T14:03:07.954Z,97831.28
2022-08-03T14:05:44.986Z,97828.31
2022-08-03T14:08:13.912Z,97829.00
2022-08-03T14:10:44.090Z,97828.22
2022-08-03T14:13:14.466Z,97824.25
2022-08-03T14:15:50.171Z,97822.16
2022-08-03T14:18:29.169Z,97817.81
2022-08-03T14:21:07.405Z,97821.06
2022-08-03T14:23:37.846Z,97818.19
2022-08-03T14:26:09.656Z,97828.25
2022-08-03T14:28:37.588Z,97821.91
2022-08-03T14:31:08.509Z,97817.19
2022-08-03T14:33:52.402Z,97811.56
2022-08-03T14:36:19.377Z,97818.22
2022-08-03T14:38:47.761Z,97809.56
2022-08-03T14:41:19.998Z,97813.97
2022-08-03T14:44:01.046Z,97814.44
2022-08-03T14:46:29.566Z,97805.13
2022-08-03T14:50:10.404Z,97814.28
2022-08-03T14:51:51.582Z,97809.03
2022-08-03T14:54:22.491Z,97801.19
2022-08-03T14:56:49.677Z,97817.75
2022-08-03T14:59:17.128Z,97807.13
2022-08-03T15:02:02.651Z,97802.34
2022-08-03T15:04:31.886Z,97798.53
2022-08-03T15:06:58.824Z,97792.94
2022-08-03T15:09:26.139Z,97794.88
2022-08-03T15:11:53.578Z,97783.16
2022-08-03T15:14:22.388Z,97793.00
2022-08-03T15:17:00.677Z,97787.47
2022-08-03T15:20:02.165Z,97785.13
2022-08-03T15:22:19.069Z,97783.94
2022-08-03T15:24:48.129Z,97790.00
2022-08-03T15:27:15.062Z,97791.03
2022-08-03T15:30:06.147Z,97792.25
2022-08-03T15:32:30.293Z,97783.53
2022-08-03T15:34:57.502Z,97783.94
2022-08-03T15:37:25.934Z,97784.38
2022-08-03T15:40:00.017Z,97785.06
2022-08-03T15:42:33.165Z,97789.63
2022-08-03T15:45:00.599Z,97788.38
2022-08-03T15:47:27.982Z,97787.44
2022-08-03T15:49:55.822Z,97788.59
2022-08-03T15:52:23.604Z,97787.50
2022-08-03T15:54:51.182Z,97795.66
2022-08-03T15:57:18.361Z,97784.34
2022-08-03T15:59:46.237Z,97788.88
2022-08-03T16:02:13.208Z,97783.75
2022-08-03T16:04:40.558Z,97781.41
2022-08-03T16:07:08.334Z,97779.09
2022-08-03T16:09:43.437Z,97778.47
2022-08-03T16:12:15.540Z,97785.16
2022-08-03T16:14:52.839Z,97779.75
2022-08-03T16:17:22.935Z,97788.53
2022-08-03T16:19:50.463Z,97786.78
2022-08-03T16:22:22.892Z,97801.50
2022-08-03T16:24:51.111Z,97781.28
2022-08-03T16:27:37.028Z,97790.66
2022-08-03T16:30:07.617Z,97789.19
2022-08-03T16:32:34.973Z,97798.03
2022-08-03T16:35:02.299Z,97789.44
2022-08-03T16:37:38.706Z,97789.97
2022-08-03T16:40:19.308Z,97791.09
2022-08-03T16:42:47.790Z,97792.66
2022-08-03T16:45:15.209Z,97795.50
2022-08-03T16:47:42.719Z,97800.91
2022-08-03T16:50:15.823Z,97793.19
2022-08-03T16:52:48.421Z,97799.59
2022-08-03T16:55:43.515Z,97803.84
2022-08-03T16:58:05.677Z,97812.41
2022-08-03T17:00:41.112Z,97823.69
2022-08-03T17:03:18.823Z,97819.00
2022-08-03T17:05:52.315Z,97810.63
2022-08-03T17:08:26.692Z,97818.44
2022-08-03T17:10:56.233Z,97826.22
2022-08-03T17:13:39.532Z,97828.16
2022-08-03T17:16:10.574Z,97831.78
2022-08-03T17:18:58.510Z,97824.94
2022-08-03T17:21:36.611Z,97836.41
2022-08-03T17:24:32.156Z,97829.78
2022-08-03T17:27:08.815Z,97831.22
2022-08-03T17:29:45.115Z,97840.47
2022-08-03T17:32:21.376Z,97838.69
2022-08-03T17:34:50.012Z,97841.56
2022-08-03T17:37:49.961Z,97851.59
2022-08-03T17:40:10.587Z,97850.75
2022-08-03T17:42:40.209Z,97850.44
2022-08-03T17:45:15.905Z,97850.81
2022-08-03T17:47:44.067Z,97857.25
2022-08-03T17:50:24.954Z,97861.09
2022-08-03T17:53:07.554Z,97861.41
2022-08-03T17:55:55.893Z,97865.97
2022-08-03T17:59:10.251Z,97862.03
2022-08-03T18:02:22.251Z,97860.34
2022-08-03T18:05:02.888Z,97875.25
2022-08-03T18:07:59.348Z,97884.91
2022-08-03T18:10:34.917Z,97884.53
2022-08-03T18:13:19.670Z,97879.75
2022-08-03T18:15:54.453Z,97884.44
2022-08-03T18:18:32.655Z,97885.47
2022-08-03T18:21:06.471Z,97884.28
2022-08-03T18:23:40.061Z,97896.38
2022-08-03T18:26:12.213Z,97905.19
2022-08-03T18:28:41.602Z,97913.97
2022-08-03T18:31:12.760Z,97914.19
2022-08-03T18:34:19.721Z,97909.03
2022-08-03T18:36:50.821Z,97923.59
2022-08-03T18:39:22.191Z,97921.00
2022-08-03T18:41:49.258Z,97924.78
2022-08-03T18:44:53.249Z,97921.69
2022-08-03T18:47:16.388Z,97938.28
2022-08-03T18:49:59.339Z,97931.53
2022-08-03T18:52:32.011Z,97945.59
2022-08-03T18:55:20.844Z,97942.16
2022-08-03T18:58:15.970Z,97944.28
2022-08-03T19:00:59.287Z,97945.56
2022-08-03T19:03:41.481Z,97949.09
2022-08-03T19:06:20.300Z,97952.66
2022-08-03T19:09:37.391Z,97957.97
2022-08-03T19:12:31.027Z,97966.13
2022-08-03T19:15:10.340Z,97952.44
2022-08-03T19:17:50.026Z,97968.72
2022-08-03T19:20:38.376Z,97967.31
2022-08-03T19:23:06.873Z,97975.66
2022-08-03T19:25:41.611Z,97975.00
2022-08-03T19:28:09.369Z,97979.88
2022-08-03T19:30:39.861Z,97991.47
2022-08-03T19:33:12.539Z,97991.13
2022-08-03T19:35:55.143Z,97991.38
2022-08-03T19:38:29.788Z,97991.88
2022-08-03T19:41:02.110Z,98003.97
2022-08-03T19:43:53.391Z,98004.34
2022-08-03T19:46:27.728Z,98009.94
2022-08-03T19:49:15.462Z,98006.25
2022-08-03T19:52:02.101Z,98003.84
2022-08-03T19:54:45.457Z,98004.25
2022-08-03T19:57:23.993Z,98010.16
2022-08-03T19:59:54.058Z,98011.50
2022-08-03T20:02:27.176Z,98006.09
2022-08-03T20:04:57.622Z,98013.94
2022-08-03T20:07:29.024Z,98014.78
2022-08-03T20:10:01.497Z,98007.22
2022-08-03T20:12:33.163Z,98014.81
2022-08-03T20:15:07.659Z,98015.19
2022-08-03T20:17:56.566Z,98017.59
2022-08-03T20:20:26.876Z,98025.25
2022-08-03T20:22:57.485Z,98018.78
2022-08-03T20:25:38.280Z,98018.66
2022-08-03T20:28:13.810Z,98032.13
2022-08-03T20:30:47.267Z,98032.59
2022-08-03T20:33:18.536Z,98028.88
2022-08-03T20:35:49.300Z,98031.53
2022-08-03T20:38:18.874Z,98041.03
2022-08-03T20:40:47.340Z,98037.31
2022-08-03T20:43:16.388Z,98035.25
2022-08-03T20:46:01.176Z,98043.41
2022-08-03T20:48:35.296Z,98047.16
2022-08-03T20:51:05.335Z,98039.34
2022-08-03T20:53:57.396Z,98036.16
2022-08-03T20:56:35.741Z,98027.53
2022-08-03T20:59:07.498Z,98051.19
2022-08-03T21:01:44.379Z,98049.84
2022-08-03T21:04:11.898Z,98053.63
2022-08-03T21:06:54.119Z,98053.97
2022-08-03T21:09:39.761Z,98053.25
2022-08-03T21:12:15.507Z,98055.84
2022-08-03T21:15:06.849Z,98058.25
2022-08-03T21:17:40.940Z,98062.78
2022-08-03T21:20:11.159Z,98066.63
2022-08-03T21:22:39.698Z,98058.56
2022-08-03T21:25:09.475Z,98060.31
2022-08-03T21:27:39.051Z,98060.16
2022-08-03T21:30:09.234Z,98062.78
2022-08-03T21:32:40.719Z,98058.19
2022-08-03T21:35:10.093Z,98067.38
2022-08-03T21:37:39.125Z,98071.00
2022-08-03T21:40:08.952Z,98081.44
2022-08-03T21:42:35.936Z,98074.16
2022-08-03T21:45:08.677Z,98078.75
2022-08-03T21:47:38.444Z,98075.44
2022-08-03T21:50:09.942Z,98078.47
2022-08-03T21:52:44.665Z,98078.53
2022-08-03T21:55:18.290Z,98079.81
2022-08-03T21:57:52.563Z,98079.03
2022-08-03T22:00:21.975Z,98069.38
2022-08-03T22:02:57.385Z,98080.59
2022-08-03T22:05:42.441Z,98086.97
2022-08-03T22:08:13.745Z,98090.44
2022-08-03T22:10:43.735Z,98085.59
2022-08-03T22:13:13.298Z,98088.78
2022-08-03T22:15:42.236Z,98083.78
2022-08-03T22:18:10.506Z,98092.66
2022-08-03T22:20:37.762Z,98091.38
2022-08-03T22:23:07.531Z,98091.66
2022-08-03T22:25:39.276Z,98094.41
2022-08-03T22:28:10.632Z,98096.38
2022-08-03T22:30:39.321Z,98087.09
2022-08-03T22:33:11.243Z,98096.19
2022-08-03T22:35:47.208Z,98095.09
2022-08-03T22:38:19.173Z,98091.72
2022-08-03T22:40:51.273Z,98080.31
2022-08-03T22:43:26.168Z,98088.78
2022-08-03T22:46:09.248Z,98087.97
2022-08-03T22:48:41.301Z,98083.97
2022-08-03T22:51:09.681Z,98081.41
2022-08-03T22:53:38.855Z,98081.00
2022-08-03T22:56:07.038Z,98087.59
2022-08-03T22:58:34.506Z,98083.34
2022-08-03T23:01:06.134Z,98092.44
2022-08-03T23:03:58.933Z,98089.53
2022-08-03T23:06:27.882Z,98095.25
2022-08-03T23:08:55.772Z,98090.19
2022-08-03T23:11:24.532Z,98083.44
2022-08-03T23:13:54.776Z,98091.47
2022-08-03T23:16:29.714Z,98090.19
2022-08-03T23:18:59.935Z,98083.03
2022-08-03T23:22:00.046Z,98085.78
2022-08-03T23:24:31.173Z,98084.13
2022-08-03T23:26:59.254Z,98085.16
2022-08-03T23:29:30.493Z,98083.91
2022-08-03T23:31:59.901Z,98085.22
2022-08-03T23:34:47.295Z,98079.50
2022-08-03T23:37:15.729Z,98077.41
2022-08-03T23:39:45.563Z,98074.66
2022-08-03T23:42:18.576Z,98087.13
2022-08-03T23:44:46.638Z,98080.59
2022-08-03T23:47:14.606Z,98084.38
2022-08-03T23:49:42.306Z,98077.19
2022-08-03T23:52:34.647Z,98083.34
2022-08-03T23:55:02.658Z,98089.88
2022-08-03T23:57:57.042Z,98087.75
